sensor_id;sensor_type;location;lat;lon;timestamp;pressure;altitude;pressure_sealevel;temperature;humidity
32747;BME280;19118;50.860;13.662;2023-01-30T00:03:36;96883.31;;;-3.87;100.00
32747;BME280;19118;50.860;13.662;2023-01-30T00:08:37;96890.91;;;-3.97;100.00
32747;BME280;19118;50.860;13.662;2023-01-30T00:13:38;96883.28;;;-3.98;100.00
32747;BME280;19118;50.860;13.662;2023-01-30T00:18:40;96880.44;;;-3.83;100.00
32747;BME280;19118;50.860;13.662;2023-01-30T00:23:41;96867.53;;;-3.71;100.00
32747;BME280;19118;50.860;13.662;2023-01-30T00:28:41;96866.34;;;-3.78;100.00
32747;BME280;19118;50.860;13.662;2023-01-30T00:33:41;96864.41;;;-3.88;100.00
32747;BME280;19118;50.860;13.662;2023-01-30T00:38:42;96859.09;;;-3.73;100.00
32747;BME280;19118;50.860;13.662;2023-01-30T00:43:42;96867.75;;;-3.74;100.00
32747;BME280;19118;50.860;13.662;2023-01-30T00:49:01;96858.03;;;-3.71;100.00
32747;BME280;19118;50.860;13.662;2023-01-30T00:54:01;96870.91;;;-3.47;100.00
32747;BME280;19118;50.860;13.662;2023-01-30T00:59:02;96846.47;;;-3.32;100.00
32747;BME280;19118;50.860;13.662;2023-01-30T01:04:02;96853.78;;;-3.26;100.00
32747;BME280;19118;50.860;13.662;2023-01-30T01:09:03;96838.16;;;-3.13;100.00
32747;BME280;19118;50.860;13.662;2023-01-30T01:14:04;96846.25;;;-3.06;100.00
32747;BME280;19118;50.860;13.662;2023-01-30T01:19:05;96834.06;;;-3.04;100.00
32747;BME280;19118;50.860;13.662;2023-01-30T01:24:05;96819.00;;;-2.99;100.00
32747;BME280;19118;50.860;13.662;2023-01-30T01:29:11;96801.38;;;-2.94;100.00
32747;BME280;19118;50.860;13.662;2023-01-30T01:34:11;96769.97;;;-2.89;100.00
32747;BME280;19118;50.860;13.662;2023-01-30T01:39:12;96757.88;;;-3.11;100.00
32747;BME280;19118;50.860;13.662;2023-01-30T01:44:13;96739.66;;;-3.32;100.00
32747;BME280;19118;50.860;13.662;2023-01-30T01:49:29;96728.50;;;-3.44;100.00
32747;BME280;19118;50.860;13.662;2023-01-30T01:59:48;96720.31;;;-3.38;100.00
32747;BME280;19118;50.860;13.662;2023-01-30T02:04:52;96701.94;;;-3.24;100.00
32747;BME280;19118;50.860;13.662;2023-01-30T02:10:05;96677.16;;;-3.15;100.00
32747;BME280;19118;50.860;13.662;2023-01-30T02:15:06;96659.59;;;-3.00;100.00
32747;BME280;19118;50.860;13.662;2023-01-30T02:25:36;96625.38;;;-2.72;100.00
32747;BME280;19118;50.860;13.662;2023-01-30T02:30:59;96642.00;;;-2.53;100.00
32747;BME280;19118;50.860;13.662;2023-01-30T02:36:11;96622.09;;;-2.32;100.00
32747;BME280;19118;50.860;13.662;2023-01-30T02:41:27;96613.50;;;-2.12;100.00
32747;BME280;19118;50.860;13.662;2023-01-30T02:46:55;96614.16;;;-1.89;100.00
32747;BME280;19118;50.860;13.662;2023-01-30T02:51:59;96633.88;;;-1.67;100.00
32747;BME280;19118;50.860;13.662;2023-01-30T02:57:01;96628.34;;;-1.53;100.00
32747;BME280;19118;50.860;13.662;2023-01-30T03:02:26;96599.28;;;-1.47;100.00
32747;BME280;19118;50.860;13.662;2023-01-30T03:07:57;96579.38;;;-1.36;100.00
32747;BME280;19118;50.860;13.662;2023-01-30T03:13:19;96549.91;;;-1.35;100.00
32747;BME280;19118;50.860;13.662;2023-01-30T03:18:21;96559.72;;;-1.29;100.00
32747;BME280;19118;50.860;13.662;2023-01-30T03:23:22;96550.47;;;-1.22;100.00
32747;BME280;19118;50.860;13.662;2023-01-30T03:28:22;96539.53;;;-1.16;100.00
32747;BME280;19118;50.860;13.662;2023-01-30T03:33:23;96517.16;;;-1.07;100.00
32747;BME280;19118;50.860;13.662;2023-01-30T03:38:24;96500.75;;;-1.08;100.00
32747;BME280;19118;50.860;13.662;2023-01-30T03:43:24;96488.47;;;-1.06;100.00
32747;BME280;19118;50.860;13.662;2023-01-30T03:48:25;96485.44;;;-0.92;100.00
32747;BME280;19118;50.860;13.662;2023-01-30T03:53:26;96477.13;;;-1.05;100.00
32747;BME280;19118;50.860;13.662;2023-01-30T03:58:27;96462.38;;;-1.04;100.00
32747;BME280;19118;50.860;13.662;2023-01-30T04:03:29;96443.66;;;-0.89;100.00
32747;BME280;19118;50.860;13.662;2023-01-30T04:08:32;96466.44;;;-0.82;100.00
32747;BME280;19118;50.860;13.662;2023-01-30T04:13:33;96442.78;;;-0.79;100.00
32747;BME280;19118;50.860;13.662;2023-01-30T04:18:34;96474.50;;;-0.76;100.00
32747;BME280;19118;50.860;13.662;2023-01-30T04:23:46;96455.06;;;-0.72;100.00
32747;BME280;19118;50.860;13.662;2023-01-30T04:28:46;96454.59;;;-0.95;100.00
32747;BME280;19118;50.860;13.662;2023-01-30T04:33:47;96450.19;;;-0.84;100.00
32747;BME280;19118;50.860;13.662;2023-01-30T04:38:49;96437.34;;;-0.76;100.00
32747;BME280;19118;50.860;13.662;2023-01-30T04:43:51;96429.13;;;-0.72;100.00
32747;BME280;19118;50.860;13.662;2023-01-30T04:48:58;96430.72;;;-0.61;100.00
32747;BME280;19118;50.860;13.662;2023-01-30T04:53:59;96412.94;;;-0.56;100.00
32747;BME280;19118;50.860;13.662;2023-01-30T04:59:00;96394.50;;;-0.35;100.00
32747;BME280;19118;50.860;13.662;2023-01-30T05:04:06;96380.03;;;-0.38;100.00
32747;BME280;19118;50.860;13.662;2023-01-30T05:09:07;96377.28;;;-0.36;100.00
32747;BME280;19118;50.860;13.662;2023-01-30T05:14:07;96361.66;;;-0.26;100.00
32747;BME280;19118;50.860;13.662;2023-01-30T05:19:09;96355.75;;;-0.19;100.00
32747;BME280;19118;50.860;13.662;2023-01-30T05:24:11;96348.47;;;-0.15;100.00
32747;BME280;19118;50.860;13.662;2023-01-30T05:29:11;96323.84;;;-0.11;100.00
32747;BME280;19118;50.860;13.662;2023-01-30T05:34:11;96316.41;;;-0.06;100.00
32747;BME280;19118;50.860;13.662;2023-01-30T05:39:12;96312.84;;;-0.05;100.00
32747;BME280;19118;50.860;13.662;2023-01-30T05:44:12;96298.56;;;-0.01;100.00
32747;BME280;19118;50.860;13.662;2023-01-30T05:49:13;96295.03;;;0.00;100.00
32747;BME280;19118;50.860;13.662;2023-01-30T05:54:13;96302.13;;;-0.02;100.00
32747;BME280;19118;50.860;13.662;2023-01-30T05:59:13;96300.59;;;0.05;100.00
32747;BME280;19118;50.860;13.662;2023-01-30T06:04:14;96297.25;;;0.13;100.00
32747;BME280;19118;50.860;13.662;2023-01-30T06:09:14;96272.22;;;0.12;100.00
32747;BME280;19118;50.860;13.662;2023-01-30T06:14:15;96281.84;;;0.19;100.00
32747;BME280;19118;50.860;13.662;2023-01-30T06:19:15;96261.72;;;0.21;100.00
32747;BME280;19118;50.860;13.662;2023-01-30T06:24:16;96289.06;;;0.25;100.00
32747;BME280;19118;50.860;13.662;2023-01-30T06:29:16;96255.41;;;0.24;100.00
32747;BME280;19118;50.860;13.662;2023-01-30T06:34:16;96273.75;;;0.22;100.00
32747;BME280;19118;50.860;13.662;2023-01-30T06:39:17;96275.16;;;0.35;100.00
32747;BME280;19118;50.860;13.662;2023-01-30T06:44:17;96262.97;;;0.35;100.00
32747;BME280;19118;50.860;13.662;2023-01-30T06:49:17;96257.59;;;0.37;100.00
32747;BME280;19118;50.860;13.662;2023-01-30T06:54:18;96243.16;;;0.42;100.00
32747;BME280;19118;50.860;13.662;2023-01-30T06:59:18;96258.66;;;0.52;100.00
32747;BME280;19118;50.860;13.662;2023-01-30T07:04:19;96272.34;;;0.54;100.00
32747;BME280;19118;50.860;13.662;2023-01-30T07:09:19;96269.63;;;0.38;100.00
32747;BME280;19118;50.860;13.662;2023-01-30T07:14:19;96287.47;;;0.33;100.00
32747;BME280;19118;50.860;13.662;2023-01-30T07:19:20;96283.53;;;0.28;100.00
32747;BME280;19118;50.860;13.662;2023-01-30T07:24:20;96287.94;;;0.28;100.00
32747;BME280;19118;50.860;13.662;2023-01-30T07:29:20;96293.63;;;0.32;100.00
32747;BME280;19118;50.860;13.662;2023-01-30T07:34:21;96279.88;;;0.39;100.00
32747;BME280;19118;50.860;13.662;2023-01-30T07:39:21;96285.31;;;0.46;100.00
32747;BME280;19118;50.860;13.662;2023-01-30T07:44:21;96282.47;;;0.57;100.00
32747;BME280;19118;50.860;13.662;2023-01-30T07:49:22;96263.56;;;0.55;100.00
32747;BME280;19118;50.860;13.662;2023-01-30T07:54:22;96276.06;;;0.51;100.00
32747;BME280;19118;50.860;13.662;2023-01-30T07:59:23;96269.72;;;0.54;100.00
32747;BME280;19118;50.860;13.662;2023-01-30T08:04:23;96276.31;;;0.66;100.00
32747;BME280;19118;50.860;13.662;2023-01-30T08:09:23;96282.63;;;0.64;100.00
32747;BME280;19118;50.860;13.662;2023-01-30T08:14:24;96276.31;;;0.66;100.00
32747;BME280;19118;50.860;13.662;2023-01-30T08:19:24;96270.09;;;0.59;100.00
32747;BME280;19118;50.860;13.662;2023-01-30T08:24:25;96268.50;;;0.40;100.00
32747;BME280;19118;50.860;13.662;2023-01-30T08:29:25;96267.53;;;0.41;100.00
32747;BME280;19118;50.860;13.662;2023-01-30T08:34:26;96274.38;;;0.42;100.00
32747;BME280;19118;50.860;13.662;2023-01-30T08:39:26;96268.91;;;0.53;100.00
32747;BME280;19118;50.860;13.662;2023-01-30T08:44:26;96263.28;;;0.58;100.00
32747;BME280;19118;50.860;13.662;2023-01-30T08:49:27;96268.94;;;0.79;100.00
32747;BME280;19118;50.860;13.662;2023-01-30T08:54:27;96264.97;;;0.75;100.00
32747;BME280;19118;50.860;13.662;2023-01-30T08:59:27;96273.66;;;0.84;100.00
32747;BME280;19118;50.860;13.662;2023-01-30T09:04:29;96260.81;;;0.91;100.00
32747;BME280;19118;50.860;13.662;2023-01-30T09:09:29;96266.88;;;0.99;100.00
32747;BME280;19118;50.860;13.662;2023-01-30T09:14:30;96270.72;;;0.87;100.00
32747;BME280;19118;50.860;13.662;2023-01-30T09:19:30;96249.75;;;0.88;100.00
32747;BME280;19118;50.860;13.662;2023-01-30T09:24:31;96253.84;;;0.91;100.00
32747;BME280;19118;50.860;13.662;2023-01-30T09:29:31;96250.78;;;0.96;100.00
32747;BME280;19118;50.860;13.662;2023-01-30T09:34:31;96250.13;;;1.02;100.00
32747;BME280;19118;50.860;13.662;2023-01-30T09:39:32;96253.59;;;1.10;100.00
32747;BME280;19118;50.860;13.662;2023-01-30T09:50:37;96248.44;;;1.27;100.00
32747;BME280;19118;50.860;13.662;2023-01-30T09:55:41;96229.56;;;1.25;100.00
32747;BME280;19118;50.860;13.662;2023-01-30T10:00:42;96205.00;;;1.35;100.00
32747;BME280;19118;50.860;13.662;2023-01-30T10:05:47;96212.22;;;1.90;100.00
32747;BME280;19118;50.860;13.662;2023-01-30T10:11:03;96208.97;;;1.96;100.00
32747;BME280;19118;50.860;13.662;2023-01-30T10:26:41;96177.81;;;2.27;100.00
32747;BME280;19118;50.860;13.662;2023-01-30T10:31:45;96169.78;;;2.37;100.00
32747;BME280;19118;50.860;13.662;2023-01-30T10:42:10;96174.88;;;2.22;100.00
32747;BME280;19118;50.860;13.662;2023-01-30T10:47:32;96191.38;;;1.98;100.00
32747;BME280;19118;50.860;13.662;2023-01-30T10:52:48;96182.25;;;1.86;100.00
32747;BME280;19118;50.860;13.662;2023-01-30T10:58:14;96198.88;;;1.77;100.00
32747;BME280;19118;50.860;13.662;2023-01-30T11:03:33;96185.19;;;1.83;100.00
32747;BME280;19118;50.860;13.662;2023-01-30T11:08:35;96178.16;;;2.00;100.00
32747;BME280;19118;50.860;13.662;2023-01-30T11:13:36;96174.44;;;1.86;100.00
32747;BME280;19118;50.860;13.662;2023-01-30T11:18:49;96183.56;;;1.74;100.00
32747;BME280;19118;50.860;13.662;2023-01-30T11:23:50;96188.44;;;1.77;100.00
32747;BME280;19118;50.860;13.662;2023-01-30T11:28:52;96195.59;;;1.51;100.00
32747;BME280;19118;50.860;13.662;2023-01-30T11:34:01;96177.84;;;1.62;100.00
32747;BME280;19118;50.860;13.662;2023-01-30T11:39:05;96188.59;;;1.51;100.00
32747;BME280;19118;50.860;13.662;2023-01-30T11:44:34;96177.97;;;1.28;100.00
32747;BME280;19118;50.860;13.662;2023-01-30T11:49:44;96193.91;;;1.17;100.00
32747;BME280;19118;50.860;13.662;2023-01-30T11:54:45;96173.41;;;1.30;100.00
32747;BME280;19118;50.860;13.662;2023-01-30T11:59:56;96184.81;;;1.45;100.00
32747;BME280;19118;50.860;13.662;2023-01-30T12:05:04;96172.16;;;1.51;100.00
32747;BME280;19118;50.860;13.662;2023-01-30T12:10:29;96174.09;;;1.49;100.00
32747;BME280;19118;50.860;13.662;2023-01-30T12:15:32;96155.84;;;1.40;100.00
32747;BME280;19118;50.860;13.662;2023-01-30T12:20:45;96130.13;;;1.54;100.00
32747;BME280;19118;50.860;13.662;2023-01-30T12:25:59;96142.19;;;1.71;100.00
32747;BME280;19118;50.860;13.662;2023-01-30T12:31:18;96112.03;;;1.85;100.00
32747;BME280;19118;50.860;13.662;2023-01-30T12:47:14;96126.41;;;1.72;100.00
32747;BME280;19118;50.860;13.662;2023-01-30T13:08:38;96097.81;;;2.12;100.00
32747;BME280;19118;50.860;13.662;2023-01-30T13:13:48;96092.81;;;1.86;100.00
32747;BME280;19118;50.860;13.662;2023-01-30T13:19:00;96107.34;;;1.72;100.00
32747;BME280;19118;50.860;13.662;2023-01-30T13:29:40;96085.81;;;1.94;100.00
32747;BME280;19118;50.860;13.662;2023-01-30T13:34:46;96101.44;;;1.94;100.00
32747;BME280;19118;50.860;13.662;2023-01-30T13:40:03;96116.13;;;1.71;100.00
32747;BME280;19118;50.860;13.662;2023-01-30T13:45:06;96100.97;;;1.74;100.00
32747;BME280;19118;50.860;13.662;2023-01-30T13:55:56;96101.09;;;1.97;100.00
32747;BME280;19118;50.860;13.662;2023-01-30T14:00:57;96113.84;;;1.68;100.00
32747;BME280;19118;50.860;13.662;2023-01-30T14:05:58;96094.97;;;1.41;100.00
32747;BME280;19118;50.860;13.662;2023-01-30T14:11:01;96103.75;;;1.57;100.00
32747;BME280;19118;50.860;13.662;2023-01-30T14:16:04;96100.66;;;1.45;100.00
32747;BME280;19118;50.860;13.662;2023-01-30T14:21:25;96100.84;;;1.60;100.00
32747;BME280;19118;50.860;13.662;2023-01-30T14:31:48;96103.59;;;1.34;100.00
32747;BME280;19118;50.860;13.662;2023-01-30T14:36:50;96108.94;;;1.24;100.00
32747;BME280;19118;50.860;13.662;2023-01-30T14:42:18;96120.34;;;1.15;100.00
32747;BME280;19118;50.860;13.662;2023-01-30T14:47:19;96109.94;;;1.31;100.00
32747;BME280;19118;50.860;13.662;2023-01-30T14:52:39;96112.38;;;1.33;100.00
32747;BME280;19118;50.860;13.662;2023-01-30T14:57:48;96114.81;;;1.42;100.00
32747;BME280;19118;50.860;13.662;2023-01-30T15:02:55;96114.50;;;1.37;100.00
32747;BME280;19118;50.860;13.662;2023-01-30T15:08:07;96117.59;;;1.33;100.00
32747;BME280;19118;50.860;13.662;2023-01-30T15:23:48;96125.56;;;1.15;100.00
32747;BME280;19118;50.860;13.662;2023-01-30T15:29:21;96144.44;;;1.17;100.00
32747;BME280;19118;50.860;13.662;2023-01-30T15:34:29;96155.31;;;1.12;100.00
32747;BME280;19118;50.860;13.662;2023-01-30T15:39:29;96170.06;;;0.87;100.00
32747;BME280;19118;50.860;13.662;2023-01-30T15:44:52;96171.94;;;0.69;100.00
32747;BME280;19118;50.860;13.662;2023-01-30T15:49:59;96197.56;;;0.56;100.00
32747;BME280;19118;50.860;13.662;2023-01-30T15:55:01;96214.81;;;0.31;100.00
32747;BME280;19118;50.860;13.662;2023-01-30T16:00:04;96243.31;;;0.41;100.00
32747;BME280;19118;50.860;13.662;2023-01-30T16:05:21;96236.16;;;0.35;100.00
32747;BME280;19118;50.860;13.662;2023-01-30T16:10:25;96249.00;;;0.36;100.00
32747;BME280;19118;50.860;13.662;2023-01-30T16:15:30;96242.66;;;0.39;100.00
32747;BME280;19118;50.860;13.662;2023-01-30T16:20:42;96262.03;;;0.44;100.00
32747;BME280;19118;50.860;13.662;2023-01-30T16:25:45;96263.88;;;0.52;100.00
32747;BME280;19118;50.860;13.662;2023-01-30T16:30:46;96284.09;;;0.58;100.00
32747;BME280;19118;50.860;13.662;2023-01-30T16:35:47;96271.91;;;0.67;100.00
32747;BME280;19118;50.860;13.662;2023-01-30T16:40:47;96270.84;;;0.77;100.00
32747;BME280;19118;50.860;13.662;2023-01-30T16:56:01;96264.94;;;1.01;100.00
32747;BME280;19118;50.860;13.662;2023-01-30T17:01:06;96283.47;;;0.98;100.00
32747;BME280;19118;50.860;13.662;2023-01-30T17:06:22;96274.78;;;0.81;100.00
32747;BME280;19118;50.860;13.662;2023-01-30T17:16:32;96295.47;;;0.57;100.00
32747;BME280;19118;50.860;13.662;2023-01-30T17:21:44;96292.53;;;0.60;100.00
32747;BME280;19118;50.860;13.662;2023-01-30T17:26:48;96294.06;;;0.71;100.00
32747;BME280;19118;50.860;13.662;2023-01-30T17:31:51;96304.88;;;0.84;100.00
32747;BME280;19118;50.860;13.662;2023-01-30T17:36:52;96291.44;;;0.97;100.00
32747;BME280;19118;50.860;13.662;2023-01-30T17:41:53;96293.06;;;0.98;100.00
32747;BME280;19118;50.860;13.662;2023-01-30T17:46:53;96292.75;;;1.01;100.00
32747;BME280;19118;50.860;13.662;2023-01-30T17:51:54;96296.34;;;1.00;100.00
32747;BME280;19118;50.860;13.662;2023-01-30T17:57:03;96317.78;;;0.94;100.00
32747;BME280;19118;50.860;13.662;2023-01-30T18:02:04;96323.91;;;0.84;100.00
32747;BME280;19118;50.860;13.662;2023-01-30T18:07:06;96348.47;;;0.82;100.00
32747;BME280;19118;50.860;13.662;2023-01-30T18:12:10;96364.31;;;0.97;100.00
32747;BME280;19118;50.860;13.662;2023-01-30T18:17:11;96366.66;;;1.08;100.00
32747;BME280;19118;50.860;13.662;2023-01-30T18:22:12;96369.31;;;0.90;100.00
32747;BME280;19118;50.860;13.662;2023-01-30T18:27:12;96385.72;;;0.82;100.00
32747;BME280;19118;50.860;13.662;2023-01-30T18:32:12;96378.25;;;0.87;100.00
32747;BME280;19118;50.860;13.662;2023-01-30T18:37:13;96421.53;;;0.88;100.00
32747;BME280;19118;50.860;13.662;2023-01-30T18:42:13;96432.88;;;0.79;100.00
32747;BME280;19118;50.860;13.662;2023-01-30T18:47:13;96433.88;;;0.86;100.00
32747;BME280;19118;50.860;13.662;2023-01-30T18:52:14;96447.56;;;0.88;100.00
32747;BME280;19118;50.860;13.662;2023-01-30T18:57:14;96463.97;;;0.89;100.00
32747;BME280;19118;50.860;13.662;2023-01-30T19:02:15;96471.13;;;0.87;100.00
32747;BME280;19118;50.860;13.662;2023-01-30T19:07:15;96465.72;;;0.80;100.00
32747;BME280;19118;50.860;13.662;2023-01-30T19:12:15;96480.56;;;0.88;100.00
32747;BME280;19118;50.860;13.662;2023-01-30T19:17:34;96494.47;;;0.79;100.00
32747;BME280;19118;50.860;13.662;2023-01-30T19:22:35;96494.72;;;0.85;100.00
32747;BME280;19118;50.860;13.662;2023-01-30T19:27:36;96506.44;;;0.90;100.00
32747;BME280;19118;50.860;13.662;2023-01-30T19:32:37;96518.50;;;0.91;100.00
32747;BME280;19118;50.860;13.662;2023-01-30T19:37:37;96530.84;;;0.88;100.00
32747;BME280;19118;50.860;13.662;2023-01-30T19:42:38;96525.72;;;0.97;100.00
32747;BME280;19118;50.860;13.662;2023-01-30T19:47:38;96551.22;;;1.11;100.00
32747;BME280;19118;50.860;13.662;2023-01-30T19:52:39;96563.22;;;1.04;100.00
32747;BME280;19118;50.860;13.662;2023-01-30T19:57:39;96553.06;;;1.01;100.00
32747;BME280;19118;50.860;13.662;2023-01-30T20:02:40;96575.25;;;1.05;100.00
32747;BME280;19118;50.860;13.662;2023-01-30T20:07:40;96574.59;;;1.03;100.00
32747;BME280;19118;50.860;13.662;2023-01-30T20:12:41;96591.53;;;1.07;100.00
32747;BME280;19118;50.860;13.662;2023-01-30T20:17:41;96591.03;;;1.03;100.00
32747;BME280;19118;50.860;13.662;2023-01-30T20:22:42;96611.75;;;1.13;100.00
32747;BME280;19118;50.860;13.662;2023-01-30T20:27:42;96594.75;;;1.19;100.00
32747;BME280;19118;50.860;13.662;2023-01-30T20:32:44;96590.00;;;1.14;100.00
32747;BME280;19118;50.860;13.662;2023-01-30T20:37:44;96598.91;;;1.11;100.00
32747;BME280;19118;50.860;13.662;2023-01-30T20:42:45;96600.03;;;1.09;100.00
32747;BME280;19118;50.860;13.662;2023-01-30T20:47:47;96596.13;;;1.13;100.00
32747;BME280;19118;50.860;13.662;2023-01-30T20:52:48;96606.03;;;1.09;100.00
32747;BME280;19118;50.860;13.662;2023-01-30T20:57:50;96629.63;;;1.08;100.00
32747;BME280;19118;50.860;13.662;2023-01-30T21:02:50;96627.75;;;1.00;100.00
32747;BME280;19118;50.860;13.662;2023-01-30T21:07:51;96640.09;;;0.98;100.00
32747;BME280;19118;50.860;13.662;2023-01-30T21:12:51;96665.97;;;1.00;100.00
32747;BME280;19118;50.860;13.662;2023-01-30T21:17:52;96656.84;;;0.96;100.00
32747;BME280;19118;50.860;13.662;2023-01-30T21:22:52;96669.19;;;0.94;100.00
32747;BME280;19118;50.860;13.662;2023-01-30T21:27:52;96667.25;;;0.96;100.00
32747;BME280;19118;50.860;13.662;2023-01-30T21:32:53;96673.53;;;1.03;100.00
32747;BME280;19118;50.860;13.662;2023-01-30T21:37:53;96677.75;;;1.04;100.00
32747;BME280;19118;50.860;13.662;2023-01-30T21:43:12;96687.09;;;0.97;100.00
32747;BME280;19118;50.860;13.662;2023-01-30T21:48:12;96667.59;;;0.83;100.00
32747;BME280;19118;50.860;13.662;2023-01-30T21:53:13;96702.47;;;0.63;100.00
32747;BME280;19118;50.860;13.662;2023-01-30T21:58:13;96712.41;;;0.40;100.00
32747;BME280;19118;50.860;13.662;2023-01-30T22:03:13;96733.75;;;0.34;100.00
32747;BME280;19118;50.860;13.662;2023-01-30T22:08:14;96738.72;;;0.37;100.00
32747;BME280;19118;50.860;13.662;2023-01-30T22:13:14;96759.91;;;0.42;100.00
32747;BME280;19118;50.860;13.662;2023-01-30T22:18:14;96758.94;;;0.43;100.00
32747;BME280;19118;50.860;13.662;2023-01-30T22:23:15;96773.31;;;0.47;100.00
32747;BME280;19118;50.860;13.662;2023-01-30T22:28:15;96763.28;;;0.52;100.00
32747;BME280;19118;50.860;13.662;2023-01-30T22:33:15;96775.03;;;0.66;100.00
32747;BME280;19118;50.860;13.662;2023-01-30T22:38:16;96799.69;;;0.62;100.00
32747;BME280;19118;50.860;13.662;2023-01-30T22:43:16;96810.53;;;0.57;100.00
32747;BME280;19118;50.860;13.662;2023-01-30T22:48:16;96811.75;;;0.53;100.00
32747;BME280;19118;50.860;13.662;2023-01-30T22:53:17;96814.38;;;0.43;100.00
32747;BME280;19118;50.860;13.662;2023-01-30T22:58:17;96807.00;;;0.39;100.00
32747;BME280;19118;50.860;13.662;2023-01-30T23:03:17;96805.22;;;0.39;100.00
32747;BME280;19118;50.860;13.662;2023-01-30T23:08:18;96799.47;;;0.36;100.00
32747;BME280;19118;50.860;13.662;2023-01-30T23:13:18;96801.94;;;0.47;100.00
32747;BME280;19118;50.860;13.662;2023-01-30T23:18:18;96806.84;;;0.50;100.00
32747;BME280;19118;50.860;13.662;2023-01-30T23:23:38;96808.63;;;0.59;100.00
32747;BME280;19118;50.860;13.662;2023-01-30T23:28:38;96791.47;;;0.66;100.00
32747;BME280;19118;50.860;13.662;2023-01-30T23:33:39;96794.47;;;0.71;100.00
32747;BME280;19118;50.860;13.662;2023-01-30T23:38:40;96798.72;;;0.72;100.00
32747;BME280;19118;50.860;13.662;2023-01-30T23:43:42;96802.44;;;0.60;100.00
32747;BME280;19118;50.860;13.662;2023-01-30T23:48:44;96801.78;;;0.58;100.00
32747;BME280;19118;50.860;13.662;2023-01-30T23:53:45;96811.22;;;0.59;100.00
32747;BME280;19118;50.860;13.662;2023-01-30T23:58:46;96809.84;;;0.55;100.00
